Time;durP1;ratioP1;P1;durP2;ratioP2;P2;SDS_P1;SDS_P2;PMS_P1;PMS_P2;Temp;Humidity;BMP_temperature;BMP_pressure;BME280_temperature;BME280_humidity;BME280_pressure;Samples;Min_cycle;Max_cycle;Signal;HPM_P1;HPM_P2
2022/12/28 00:01:13;;;;;;;33.80;15.93;;;;;;;4.68;100.00;101559.69;5092784;28;20438;-43
2022/12/28 00:03:39;;;;;;;36.78;16.23;;;;;;;4.71;100.00;101558.22;5093094;28;20059;-43
2022/12/28 00:06:06;;;;;;;47.13;18.67;;;;;;;4.73;100.00;101558.31;5093661;28;20020;-43
2022/12/28 00:08:31;;;;;;;36.05;17.00;;;;;;;4.74;100.00;101545.66;5092412;28;20073;-43
2022/12/28 00:11:01;;;;;;;35.30;14.15;;;;;;;4.75;100.00;101532.09;5093450;28;20024;-43
2022/12/28 00:13:29;;;;;;;39.45;14.90;;;;;;;4.76;100.00;101532.97;5093344;28;20034;-43
2022/12/28 00:15:54;;;;;;;33.55;14.55;;;;;;;4.77;100.00;101519.41;5092578;28;20467;-43
2022/12/28 00:18:19;;;;;;;32.03;15.75;;;;;;;4.81;100.00;101506.06;5093442;28;20097;-43
2022/12/28 00:20:57;;;;;;;32.25;15.05;;;;;;;4.78;100.00;101505.88;5093090;28;20027;-43
2022/12/28 00:23:23;;;;;;;55.72;25.30;;;;;;;4.77;100.00;101504.09;5093391;28;20047;-43
2022/12/28 00:25:48;;;;;;;42.97;17.38;;;;;;;4.79;100.00;101487.22;5092937;28;20360;-46
2022/12/28 00:28:14;;;;;;;42.42;20.55;;;;;;;4.77;100.00;101479.44;5092537;28;20109;-43
2022/12/28 00:30:39;;;;;;;73.38;44.15;;;;;;;4.81;100.00;101472.84;5092799;28;20029;-42
2022/12/28 00:33:04;;;;;;;32.78;16.48;;;;;;;4.77;100.00;101476.00;5093255;28;20144;-44
2022/12/28 00:35:29;;;;;;;30.55;14.10;;;;;;;4.78;100.00;101470.13;5092213;28;20032;-44
2022/12/28 00:37:55;;;;;;;34.80;15.82;;;;;;;4.84;100.00;101459.38;5093055;28;20023;-42
2022/12/28 00:40:20;;;;;;;37.83;13.63;;;;;;;4.86;100.00;101468.03;5093030;28;20030;-47
2022/12/28 00:42:46;;;;;;;33.90;13.43;;;;;;;4.86;100.00;101456.16;5092186;28;20371;-43
2022/12/28 00:45:11;;;;;;;32.92;14.43;;;;;;;4.87;100.00;101463.03;5093176;28;20072;-43
2022/12/28 00:47:36;;;;;;;34.60;14.20;;;;;;;4.92;100.00;101450.56;5092900;28;20480;-44
2022/12/28 00:50:02;;;;;;;24.85;12.07;;;;;;;4.94;100.00;101443.84;5092334;28;20154;-43
2022/12/28 00:52:27;;;;;;;28.48;13.30;;;;;;;5.00;100.00;101440.81;5092842;28;20076;-42
2022/12/28 00:54:52;;;;;;;31.02;14.60;;;;;;;5.01;100.00;101432.34;5093104;28;20121;-43
2022/12/28 00:57:17;;;;;;;35.47;13.60;;;;;;;5.06;100.00;101433.50;5092302;28;20051;-44
2022/12/28 00:59:43;;;;;;;32.05;13.20;;;;;;;5.06;100.00;101425.84;5092658;28;20375;-43
2022/12/28 01:02:08;;;;;;;34.45;13.00;;;;;;;5.03;100.00;101421.41;5092750;28;20028;-47
2022/12/28 01:04:33;;;;;;;27.48;14.00;;;;;;;5.08;100.00;101420.03;5094561;28;20513;-44
2022/12/28 01:06:58;;;;;;;30.20;13.25;;;;;;;5.09;100.00;101415.81;5096826;28;20020;-45
2022/12/28 01:09:24;;;;;;;27.05;12.77;;;;;;;5.11;100.00;101411.66;5096825;28;20498;-43
2022/12/28 01:11:49;;;;;;;25.33;12.70;;;;;;;5.14;100.00;101414.44;5095668;28;20032;-47
2022/12/28 01:14:14;;;;;;;28.88;13.15;;;;;;;5.15;100.00;101415.31;5096930;28;20032;-43
2022/12/28 01:16:39;;;;;;;25.70;12.65;;;;;;;5.19;100.00;101407.94;5096569;28;20110;-43
2022/12/28 01:19:06;;;;;;;25.10;13.18;;;;;;;5.19;100.00;101407.94;5096026;28;20031;-46
2022/12/28 01:21:34;;;;;;;23.47;12.57;;;;;;;5.23;100.00;101412.44;5096399;28;20390;-45
2022/12/28 01:24:01;;;;;;;27.50;12.95;;;;;;;5.26;100.00;101398.94;5096579;28;20270;-46
2022/12/28 01:26:27;;;;;;;28.30;13.43;;;;;;;5.28;100.00;101395.69;5096059;28;20032;-45
2022/12/28 01:28:53;;;;;;;27.33;13.43;;;;;;;5.31;100.00;101401.75;5096497;28;20526;-42
2022/12/28 01:31:19;;;;;;;23.65;12.68;;;;;;;5.31;100.00;101395.00;5095802;28;20120;-43
2022/12/28 01:33:45;;;;;;;25.88;12.43;;;;;;;5.35;100.00;101383.28;5096246;28;20028;-42
2022/12/28 01:36:14;;;;;;;88.75;30.38;;;;;;;5.35;100.00;101384.16;5096409;28;20382;-44
2022/12/28 01:38:39;;;;;;;63.92;23.17;;;;;;;5.39;100.00;101377.56;5095292;28;20024;-42
2022/12/28 01:41:10;;;;;;;35.65;19.63;;;;;;;5.40;100.00;101382.75;5096203;28;20366;-42
2022/12/28 01:43:40;;;;;;;30.35;18.17;;;;;;;5.42;100.00;101381.19;5095786;28;20441;-43
2022/12/28 01:46:08;;;;;;;25.63;12.45;;;;;;;5.47;100.00;101373.78;5095663;28;20028;-43
2022/12/28 01:48:35;;;;;;;28.67;12.02;;;;;;;5.46;100.00;101361.78;5095958;28;20016;-43
2022/12/28 01:51:01;;;;;;;27.38;12.77;;;;;;;5.48;100.00;101367.88;5096146;28;20035;-43
2022/12/28 01:53:27;;;;;;;29.30;12.70;;;;;;;5.51;100.00;101357.81;5095207;28;20106;-44
2022/12/28 01:55:52;;;;;;;32.47;13.85;;;;;;;5.52;100.00;101348.47;5096107;28;20111;-42
2022/12/28 01:58:25;;;;;;;27.50;12.27;;;;;;;5.52;100.00;101346.78;5096186;28;20115;-42
2022/12/28 02:00:50;;;;;;;28.60;12.68;;;;;;;5.55;100.00;101347.00;5095093;28;20044;-43
2022/12/28 02:03:21;;;;;;;24.92;12.70;;;;;;;5.56;100.00;101328.28;5095714;28;20105;-43
2022/12/28 02:05:52;;;;;;;21.42;12.57;;;;;;;5.59;100.00;101320.81;5095498;28;20485;-43
2022/12/28 02:08:23;;;;;;;28.80;12.63;;;;;;;5.69;100.00;101318.75;5094934;28;20463;-42
2022/12/28 02:10:50;;;;;;;28.77;12.07;;;;;;;5.68;100.00;101314.44;5095291;28;20446;-44
2022/12/28 02:13:17;;;;;;;22.58;11.55;;;;;;;5.69;100.00;101300.88;5095744;28;20116;-42
2022/12/28 02:15:44;;;;;;;26.45;11.32;;;;;;;5.70;100.00;101300.06;5094445;28;20050;-45
2022/12/28 02:18:11;;;;;;;19.13;11.32;;;;;;;5.68;100.00;101294.88;5095567;28;20043;-44
2022/12/28 02:20:57;;;;;;;26.27;11.40;;;;;;;5.68;100.00;101276.97;5094428;28;20023;-45
2022/12/28 02:23:59;;;;;;;20.88;10.50;;;;;;;5.69;100.00;101262.50;5095599;28;20032;-44
2022/12/28 02:26:40;;;;;;;25.95;12.80;;;;;;;5.70;100.00;101254.03;5095345;28;20036;-43
2022/12/28 02:29:33;;;;;;;23.33;10.25;;;;;;;5.70;100.00;101264.28;5094897;28;20031;-43
2022/12/28 02:32:13;;;;;;;25.33;11.55;;;;;;;5.68;100.00;101263.28;5095481;28;20027;-43
2022/12/28 02:34:57;;;;;;;27.45;11.95;;;;;;;5.68;100.00;101250.50;5094550;28;20028;-43
2022/12/28 02:37:32;;;;;;;24.02;11.13;;;;;;;5.67;100.00;101244.53;5095380;28;20036;-45
2022/12/28 02:40:23;;;;;;;23.42;11.13;;;;;;;5.72;100.00;101253.34;5096027;28;20028;-43
2022/12/28 02:42:50;;;;;;;24.95;13.38;;;;;;;5.68;100.00;101245.38;5093996;28;20028;-45
2022/12/28 02:51:28;;;;;;;21.20;11.82;;;;;;;5.60;100.00;101238.19;5095411;28;19919;-42
2022/12/28 02:56:05;;;;;;;23.35;12.68;;;;;;;5.59;100.00;101233.88;5094882;28;20398;-43
2022/12/28 02:57:27;;;;;;;31.20;14.20;;;;;;;5.52;100.00;101234.31;5094022;28;20044;-42
2022/12/28 03:00:17;;;;;;;26.98;14.05;;;;;;;5.56;100.00;101204.69;5094774;28;20028;-42
2022/12/28 03:02:59;;;;;;;27.00;14.98;;;;;;;5.51;100.00;101224.00;5081976;28;20043;-43
2022/12/28 03:08:52;;;;;;;29.38;14.95;;;;;;;5.43;100.00;101214.19;5094664;28;20395;-42
2022/12/28 03:11:22;;;;;;;30.98;15.73;;;;;;;5.42;100.00;101215.03;5093919;28;20069;-42
2022/12/28 03:14:09;;;;;;;35.10;16.52;;;;;;;5.44;100.00;101203.19;5094318;28;20427;-43
2022/12/28 03:33:27;;;;;;;36.40;17.27;;;;;;;5.52;100.00;101187.41;5094317;28;20092;-42
2022/12/28 03:36:28;;;;;;;30.17;17.80;;;;;;;5.53;100.00;101189.19;5094119;28;20020;-42
2022/12/28 03:39:05;;;;;;;30.17;18.27;;;;;;;5.53;100.00;101184.06;5020964;28;20481;-43
2022/12/28 03:41:37;;;;;;;29.88;17.45;;;;;;;5.56;100.00;101185.09;5093788;28;20428;-43
2022/12/28 03:44:23;;;;;;;28.20;18.10;;;;;;;5.59;100.00;101185.28;5094123;28;20032;-43
2022/12/28 03:47:05;;;;;;;31.88;17.52;;;;;;;5.61;100.00;101172.56;5093012;28;20031;-42
2022/12/28 03:49:30;;;;;;;35.47;18.10;;;;;;;5.64;100.00;101166.75;5093853;28;20097;-43
2022/12/28 03:51:57;;;;;;;39.30;19.27;;;;;;;5.65;100.00;101176.19;5093174;28;20471;-42
2022/12/28 03:54:22;;;;;;;34.10;18.52;;;;;;;5.67;100.00;101161.78;5093549;28;20341;-43
2022/12/28 03:56:49;;;;;;;30.40;17.95;;;;;;;5.68;100.00;101164.47;5093534;28;20031;-43
2022/12/28 03:59:16;;;;;;;31.73;17.48;;;;;;;5.72;100.00;101163.81;5093068;28;20024;-44
2022/12/28 04:01:42;;;;;;;34.90;17.48;;;;;;;5.76;100.00;101146.97;5093312;28;20031;-43
2022/12/28 04:04:08;;;;;;;33.53;17.77;;;;;;;5.79;100.00;101157.34;5093579;28;20040;-44
2022/12/28 04:06:33;;;;;;;29.83;17.58;;;;;;;5.83;100.00;101146.47;5092392;28;20056;-43
2022/12/28 04:08:58;;;;;;;30.20;17.23;;;;;;;5.87;100.00;101161.19;5093696;28;20104;-43
2022/12/28 04:11:24;;;;;;;33.45;17.13;;;;;;;5.90;100.00;101151.13;5093679;28;20371;-43
2022/12/28 04:13:49;;;;;;;31.40;16.20;;;;;;;5.94;100.00;101142.81;5092398;28;20055;-43
2022/12/28 04:16:15;;;;;;;29.65;16.88;;;;;;;6.00;100.00;101151.66;5093402;28;20093;-42
2022/12/28 04:18:41;;;;;;;28.38;15.35;;;;;;;6.03;100.00;101147.59;5093042;28;20020;-43
2022/12/28 04:21:08;;;;;;;28.33;15.65;;;;;;;6.04;100.00;101151.91;5092583;28;20022;-43
2022/12/28 04:23:33;;;;;;;27.00;15.27;;;;;;;6.08;100.00;101146.16;5093124;28;20024;-43
2022/12/28 04:26:04;;;;;;;32.40;15.77;;;;;;;6.17;100.00;101143.19;5093317;28;20043;-43
2022/12/28 04:28:31;;;;;;;30.48;15.13;;;;;;;6.21;100.00;101146.78;5092220;28;20085;-43
2022/12/28 04:30:57;;;;;;;28.40;15.40;;;;;;;6.23;100.00;101148.63;5093168;28;20028;-44
2022/12/28 04:33:23;;;;;;;27.45;14.63;;;;;;;6.28;100.00;101143.75;5093183;28;20027;-43
2022/12/28 04:35:48;;;;;;;27.85;13.75;;;;;;;6.31;100.00;101143.03;5091937;28;20030;-43
2022/12/28 04:38:14;;;;;;;28.30;14.95;;;;;;;6.33;100.00;101146.56;5093452;28;20028;-43
2022/12/28 04:40:39;;;;;;;30.70;14.65;;;;;;;6.33;100.00;101144.00;5092963;28;20432;-43
2022/12/28 04:43:05;;;;;;;33.05;15.02;;;;;;;6.34;100.00;101145.72;5092323;28;20024;-43
2022/12/28 04:45:30;;;;;;;30.95;15.73;;;;;;;6.32;100.00;101134.56;5093063;28;20490;-43
2022/12/28 04:47:56;;;;;;;30.98;15.07;;;;;;;6.34;100.00;101144.06;5092875;28;20459;-43
2022/12/28 04:50:22;;;;;;;27.33;14.25;;;;;;;6.34;100.00;101138.06;5092122;28;20073;-43
2022/12/28 04:52:47;;;;;;;28.55;14.65;;;;;;;6.34;100.00;101149.19;5092527;28;20044;-43
2022/12/28 04:55:12;;;;;;;27.63;14.48;;;;;;;6.36;100.00;101151.81;5092350;28;20024;-43
2022/12/28 04:57:38;;;;;;;28.55;14.45;;;;;;;6.37;100.00;101153.59;5092773;28;20024;-43
2022/12/28 05:00:03;;;;;;;24.38;14.18;;;;;;;6.40;100.00;101140.94;5093098;28;20055;-42
2022/12/28 05:02:30;;;;;;;27.70;13.55;;;;;;;6.40;100.00;101140.94;5091564;28;20024;-43
2022/12/28 05:04:55;;;;;;;25.25;13.68;;;;;;;6.40;100.00;101134.16;5092930;28;20020;-43
2022/12/28 05:07:21;;;;;;;24.13;13.85;;;;;;;6.41;100.00;101130.75;5093031;28;20459;-43
2022/12/28 05:09:46;;;;;;;29.48;15.00;;;;;;;6.41;100.00;101117.09;5091773;28;20016;-43
2022/12/28 05:12:11;;;;;;;32.65;15.80;;;;;;;6.40;100.00;101118.78;5092820;28;20425;-43
2022/12/28 05:14:36;;;;;;;27.70;16.00;;;;;;;6.42;100.00;101116.31;5092654;28;20024;-43
2022/12/28 05:17:02;;;;;;;27.92;16.35;;;;;;;6.41;100.00;101119.66;5091862;28;20039;-43
2022/12/28 05:19:27;;;;;;;29.38;16.15;;;;;;;6.41;100.00;101110.28;5092504;28;20544;-43
2022/12/28 05:21:52;;;;;;;29.83;16.20;;;;;;;6.39;100.00;101121.25;5092833;28;20020;-43
2022/12/28 05:24:19;;;;;;;31.67;17.17;;;;;;;6.40;100.00;101120.44;5092093;28;20031;-43
2022/12/28 05:26:44;;;;;;;30.58;16.73;;;;;;;6.39;100.00;101116.13;5092482;28;20040;-43
2022/12/28 05:29:09;;;;;;;31.75;18.02;;;;;;;6.39;100.00;101128.94;5092677;28;20075;-43
2022/12/28 05:31:35;;;;;;;31.08;18.38;;;;;;;6.40;100.00;101128.13;5091634;28;20048;-43
2022/12/28 05:34:00;;;;;;;27.42;17.23;;;;;;;6.39;100.00;101126.38;5092494;28;20138;-43
2022/12/28 05:36:26;;;;;;;33.28;17.60;;;;;;;6.37;100.00;101123.72;5092420;28;20040;-44
2022/12/28 05:38:52;;;;;;;30.17;17.33;;;;;;;6.38;100.00;101135.75;5091645;28;20036;-42
2022/12/28 05:41:26;;;;;;;30.38;17.92;;;;;;;6.38;100.00;101129.75;5092570;28;20020;-43
2022/12/28 05:43:53;;;;;;;32.05;17.55;;;;;;;6.39;100.00;101131.47;5092237;28;20040;-43
2022/12/28 05:46:30;;;;;;;31.45;18.00;;;;;;;6.38;100.00;101133.19;5091654;28;20074;-43
2022/12/28 05:48:56;;;;;;;30.45;18.20;;;;;;;6.41;100.00;101124.78;5092551;28;20051;-42
2022/12/28 05:51:23;;;;;;;30.98;17.80;;;;;;;6.39;100.00;101121.25;5096330;28;20514;-42
2022/12/28 05:53:49;;;;;;;35.38;18.08;;;;;;;6.41;100.00;101114.53;5095161;28;20016;-43
2022/12/28 05:56:17;;;;;;;30.55;18.05;;;;;;;6.42;100.00;101118.84;5095860;28;20034;-42
2022/12/28 05:58:44;;;;;;;32.50;18.35;;;;;;;6.43;100.00;101112.94;5095024;28;20498;-43
2022/12/28 06:01:15;;;;;;;34.03;18.38;;;;;;;6.44;100.00;101107.00;5095945;28;20107;-42
2022/12/28 06:03:42;;;;;;;29.48;17.33;;;;;;;6.47;100.00;101099.50;5095435;28;20455;-42
2022/12/28 06:06:10;;;;;;;25.50;16.77;;;;;;;6.48;100.00;101093.56;5095251;28;20099;-42
2022/12/28 06:08:37;;;;;;;31.30;16.80;;;;;;;6.49;100.00;101090.19;5095363;28;20462;-42
2022/12/28 06:11:06;;;;;;;27.52;15.57;;;;;;;6.51;100.00;101080.91;5095895;28;20131;-43
2022/12/28 06:13:31;;;;;;;;;;;;;;;6.54;100.00;101083.63;5095186;28;20024;-43
2022/12/28 06:15:57;;;;;;;25.08;15.27;;;;;;;6.54;100.00;101081.06;5095629;28;19918;-42
2022/12/28 06:18:23;;;;;;;28.63;14.45;;;;;;;6.56;100.00;101079.47;5095791;28;20077;-43
2022/12/28 06:20:48;;;;;;;28.52;15.35;;;;;;;6.57;100.00;101070.06;5094617;28;20099;-43
2022/12/28 06:23:13;;;;;;;24.52;14.40;;;;;;;6.57;100.00;101075.19;5095625;28;20489;-42
2022/12/28 06:25:39;;;;;;;23.80;14.60;;;;;;;6.56;100.00;101073.47;5095106;28;20024;-42
2022/12/28 06:28:04;;;;;;;29.88;15.73;;;;;;;6.59;100.00;101077.03;5094615;28;20020;-42
2022/12/28 06:30:29;;;;;;;25.33;14.32;;;;;;;6.59;100.00;101078.72;5094971;28;20032;-42
2022/12/28 06:32:55;;;;;;;24.38;14.38;;;;;;;6.63;100.00;101077.22;5095945;28;20459;-43
2022/12/28 06:35:21;;;;;;;28.80;14.20;;;;;;;6.62;100.00;101072.88;5094644;28;20028;-43
2022/12/28 06:37:47;;;;;;;28.05;15.30;;;;;;;6.62;100.00;101067.75;5095029;28;20016;-42
2022/12/28 06:40:12;;;;;;;25.90;15.00;;;;;;;6.65;100.00;101070.47;5095306;28;20024;-43
2022/12/28 06:42:37;;;;;;;24.90;15.30;;;;;;;6.64;100.00;101067.03;5094017;28;20054;-42
2022/12/28 06:45:03;;;;;;;20.98;14.45;;;;;;;6.65;100.00;101066.22;5095202;28;20378;-43
2022/12/28 06:47:29;;;;;;;24.38;14.48;;;;;;;6.66;100.00;101054.28;5094956;28;20028;-43
2022/12/28 06:49:54;;;;;;;24.08;15.02;;;;;;;6.65;100.00;101062.78;5094376;28;20078;-43
2022/12/28 06:52:20;;;;;;;26.20;15.95;;;;;;;6.65;100.00;101057.66;5094914;28;20122;-45
2022/12/28 06:54:45;;;;;;;27.10;15.15;;;;;;;6.69;100.00;101059.59;5093693;28;20016;-43
2022/12/28 06:57:11;;;;;;;23.00;14.45;;;;;;;6.69;100.00;101057.03;5104229;28;20023;-44
2022/12/28 06:59:36;;;;;;;25.58;14.40;;;;;;;6.70;100.00;101056.19;5114792;28;20024;-42
2022/12/28 07:02:01;;;;;;;25.40;15.43;;;;;;;6.73;100.00;101058.91;5113445;28;20027;-43
2022/12/28 07:04:27;;;;;;;26.67;15.05;;;;;;;6.74;100.00;101050.44;5115280;28;20048;-44
2022/12/28 07:06:52;;;;;;;26.13;14.75;;;;;;;6.76;100.00;101051.38;5115179;28;20039;-43
2022/12/28 07:09:17;;;;;;;29.17;14.95;;;;;;;6.76;100.00;101056.50;5114441;28;20444;-43
2022/12/28 07:11:43;;;;;;;26.38;15.57;;;;;;;6.77;100.00;101052.28;5114722;28;20026;-43
2022/12/28 07:14:09;;;;;;;30.02;15.80;;;;;;;6.77;100.00;101053.13;5114834;28;20023;-43
2022/12/28 07:16:35;;;;;;;26.55;15.48;;;;;;;6.78;100.00;101049.78;5113661;28;20031;-43
2022/12/28 07:19:00;;;;;;;27.95;15.95;;;;;;;6.80;100.00;101050.72;5115009;28;20015;-44
2022/12/28 07:21:31;;;;;;;29.55;17.30;;;;;;;6.79;100.00;101056.66;5114658;28;20024;-43
2022/12/28 07:23:57;;;;;;;31.52;15.82;;;;;;;6.82;100.00;101050.81;5113974;28;20051;-42
2022/12/28 07:26:25;;;;;;;34.17;16.05;;;;;;;6.80;100.00;101058.41;5114666;28;20124;-45
2022/12/28 07:28:52;;;;;;;29.42;15.85;;;;;;;6.82;100.00;101054.25;5114247;28;20089;-44
2022/12/28 07:31:21;;;;;;;29.48;15.50;;;;;;;6.81;100.00;101049.91;5113971;28;20030;-42
2022/12/28 07:33:47;;;;;;;29.13;14.50;;;;;;;6.84;100.00;101044.97;5114381;28;20028;-43
2022/12/28 07:36:16;;;;;;;27.38;13.88;;;;;;;6.86;100.00;101053.56;5114275;28;20542;-43
2022/12/28 07:38:42;;;;;;;26.10;14.45;;;;;;;6.86;100.00;101048.44;5113366;28;20098;-43
2022/12/28 07:41:16;;;;;;;24.02;14.77;;;;;;;6.89;100.00;101057.97;5114556;28;20113;-43
2022/12/28 07:43:42;;;;;;;24.55;14.75;;;;;;;6.87;100.00;101045.09;5114287;28;20032;-43
2022/12/28 07:46:31;;;;;;;27.55;13.95;;;;;;;6.89;100.00;101035.81;5113734;28;20111;-42
2022/12/28 07:48:57;;;;;;;22.15;13.65;;;;;;;6.91;100.00;101061.50;5114165;28;20035;-43
2022/12/28 07:51:26;;;;;;;23.45;13.13;;;;;;;6.91;100.00;101057.22;5113437;28;20073;-43
2022/12/28 07:53:52;;;;;;;22.45;12.55;;;;;;;6.91;100.00;101061.50;5113947;28;20100;-43
2022/12/28 07:56:18;;;;;;;22.63;12.85;;;;;;;6.96;100.00;101059.13;5114123;28;20028;-44
2022/12/28 07:58:51;;;;;;;25.10;13.02;;;;;;;6.99;100.00;101059.28;5113101;28;20055;-44
2022/12/28 08:01:18;;;;;;;20.23;12.80;;;;;;;6.99;100.00;101064.41;5113962;28;20024;-43
2022/12/28 08:03:44;;;;;;;20.80;12.97;;;;;;;7.00;100.00;101066.19;5113489;28;20100;-43
2022/12/28 08:06:12;;;;;;;21.77;13.23;;;;;;;6.99;100.00;101064.41;5113071;28;20035;-43
2022/12/28 08:08:40;;;;;;;23.45;13.38;;;;;;;6.99;100.00;101060.16;5113750;28;20069;-43
2022/12/28 08:11:09;;;;;;;35.45;14.10;;;;;;;7.00;100.00;101055.94;5113899;28;20020;-43
2022/12/28 08:13:36;;;;;;;25.15;13.48;;;;;;;7.00;100.00;101061.06;5112279;28;20480;-43
2022/12/28 08:16:03;;;;;;;24.00;13.68;;;;;;;7.03;100.00;101062.06;5113630;28;20485;-43
2022/12/28 08:18:29;;;;;;;21.88;13.40;;;;;;;7.03;100.00;101058.63;5113483;28;20078;-44
2022/12/28 08:21:00;;;;;;;20.38;13.20;;;;;;;7.03;100.00;101046.69;5112905;28;20108;-44
2022/12/28 08:23:25;;;;;;;27.13;14.18;;;;;;;7.05;100.00;101049.31;5113787;28;20034;-43
2022/12/28 08:25:50;;;;;;;25.00;13.98;;;;;;;7.04;100.00;101040.75;5113429;28;20020;-42
2022/12/28 08:28:15;;;;;;;26.65;13.60;;;;;;;7.06;100.00;101043.38;5112910;28;20386;-44
2022/12/28 08:30:41;;;;;;;25.92;14.63;;;;;;;7.06;100.00;101040.81;5113167;28;20034;-43
2022/12/28 08:33:06;;;;;;;25.08;14.13;;;;;;;7.08;100.00;101044.34;5113468;28;20024;-43
2022/12/28 08:35:31;;;;;;;31.55;14.43;;;;;;;7.11;100.00;101049.59;5112250;28;20055;-43
2022/12/28 08:37:56;;;;;;;27.80;14.25;;;;;;;7.10;100.00;101037.59;5113540;28;20028;-43
2022/12/28 08:40:26;;;;;;;29.45;14.45;;;;;;;7.13;100.00;101035.19;5112798;28;20378;-46
2022/12/28 08:42:54;;;;;;;29.50;13.85;;;;;;;7.14;100.00;101028.38;5113100;28;20020;-43
2022/12/28 08:45:20;;;;;;;22.60;13.13;;;;;;;7.16;100.00;101032.75;5113506;28;20036;-44
2022/12/28 08:47:45;;;;;;;34.00;14.52;;;;;;;7.18;100.00;101035.38;5112026;28;20393;-47
2022/12/28 08:50:10;;;;;;;29.73;13.90;;;;;;;7.18;100.00;101046.53;5113444;28;20054;-45
2022/12/28 08:52:35;;;;;;;30.67;13.32;;;;;;;7.19;100.00;101032.91;5113096;28;20035;-43
2022/12/28 08:55:01;;;;;;;29.50;14.27;;;;;;;7.19;100.00;101035.47;5112735;28;20023;-43
2022/12/28 08:57:26;;;;;;;26.38;13.48;;;;;;;7.19;100.00;101038.03;5113153;28;20160;-45
2022/12/28 08:59:51;;;;;;;36.30;13.32;;;;;;;7.20;100.00;101034.66;5112919;28;20028;-43
2022/12/28 09:02:16;;;;;;;27.92;13.60;;;;;;;7.21;100.00;101038.97;5112364;28;20023;-43
2022/12/28 09:04:43;;;;;;;29.48;12.70;;;;;;;7.20;100.00;101034.66;5112534;28;20494;-43
2022/12/28 09:07:08;;;;;;;25.63;12.80;;;;;;;7.21;100.00;101035.53;5113062;28;20507;-46
2022/12/28 09:09:33;;;;;;;27.48;13.32;;;;;;;7.20;100.00;101033.78;5112210;28;20028;-44
2022/12/28 09:11:59;;;;;;;32.97;14.15;;;;;;;7.20;100.00;101044.03;5113255;28;20095;-45
2022/12/28 09:14:24;;;;;;;40.92;20.27;;;;;;;7.18;100.00;101026.03;5113158;28;20106;-47
2022/12/28 09:16:51;;;;;;;30.20;15.15;;;;;;;7.17;100.00;101036.22;5111840;28;20031;-45
2022/12/28 09:19:17;;;;;;;36.80;14.50;;;;;;;7.15;100.00;101041.25;5113092;28;20352;-43
2022/12/28 09:21:44;;;;;;;33.33;17.52;;;;;;;7.15;100.00;101046.38;5112546;28;20018;-43
2022/12/28 09:24:11;;;;;;;41.10;15.27;;;;;;;7.16;100.00;101048.13;5112693;28;20027;-43
2022/12/28 09:26:37;;;;;;;62.15;30.88;;;;;;;7.16;100.00;101045.56;5116677;28;20681;-43
2022/12/28 09:29:05;;;;;;;42.63;21.95;;;;;;;7.17;100.00;101049.03;5116870;28;20048;-44
2022/12/28 09:31:31;;;;;;;;;;;;;;;7.22;100.00;101045.88;5116255;28;20042;-48
2022/12/28 09:33:59;;;;;;;32.88;16.10;;;;;;;7.20;100.00;101033.78;5116812;28;19915;-43
2022/12/28 09:36:33;;;;;;;24.00;13.82;;;;;;;7.21;100.00;101036.41;5116965;28;20061;-46
2022/12/28 09:39:01;;;;;;;28.75;17.50;;;;;;;7.23;100.00;101033.91;5116846;28;20069;-46
2022/12/28 09:41:26;;;;;;;;;;;;;;;7.29;100.00;101039.31;5117156;28;20118;-45
2022/12/28 09:44:17;;;;;;;24.33;12.30;;;;;;;7.25;100.00;101043.44;5115855;28;19943;-44
2022/12/28 09:46:52;;;;;;;26.17;11.88;;;;;;;7.27;100.00;101040.97;5116531;28;20350;-47
2022/12/28 09:49:23;;;;;;;27.27;11.35;;;;;;;7.32;100.00;101043.72;5116799;28;20103;-44
2022/12/28 09:51:54;;;;;;;25.92;10.85;;;;;;;7.32;100.00;101034.38;5115602;28;20032;-47
2022/12/28 09:54:19;;;;;;;23.55;10.73;;;;;;;7.37;100.00;101047.38;5116468;28;20107;-47
2022/12/28 09:56:46;;;;;;;24.02;10.65;;;;;;;7.37;100.00;101037.13;5115931;28;20118;-46
2022/12/28 09:59:17;;;;;;;20.80;9.60;;;;;;;7.39;100.00;101046.63;5115559;28;20478;-45
2022/12/28 10:01:49;;;;;;;16.60;9.35;;;;;;;7.40;100.00;101038.13;5116266;28;20046;-47
2022/12/28 10:04:14;;;;;;;16.08;9.00;;;;;;;7.42;100.00;101035.63;5116020;28;20444;-47
2022/12/28 10:06:39;;;;;;;14.90;9.43;;;;;;;7.44;100.00;101038.25;5115231;28;20543;-47
2022/12/28 10:09:15;;;;;;;18.17;9.05;;;;;;;7.43;100.00;101039.97;5116133;28;20036;-46
2022/12/28 10:11:42;;;;;;;16.30;8.32;;;;;;;7.43;100.00;101033.97;5115544;28;20024;-43
2022/12/28 10:14:29;;;;;;;16.25;9.63;;;;;;;7.44;100.00;101034.03;5116208;28;20024;-44
2022/12/28 10:16:55;;;;;;;16.20;8.30;;;;;;;7.43;100.00;101022.00;5115921;28;20030;-45
2022/12/28 10:19:23;;;;;;;15.48;7.75;;;;;;;7.43;100.00;101027.16;5115292;28;20019;-47
2022/12/28 10:21:58;;;;;;;22.35;9.77;;;;;;;7.41;100.00;101021.94;5115540;28;20011;-47
2022/12/28 10:24:24;;;;;;;13.23;7.95;;;;;;;7.43;100.00;101022.00;5116163;28;20027;-47
2022/12/28 10:26:49;;;;;;;12.93;8.10;;;;;;;7.43;100.00;101032.28;5114968;28;20024;-45
2022/12/28 10:29:19;;;;;;;17.90;9.80;;;;;;;7.41;100.00;101024.53;5115724;28;20039;-48
2022/12/28 10:31:57;;;;;;;14.25;7.53;;;;;;;7.41;100.00;101013.38;5115366;28;20065;-47
2022/12/28 10:34:24;;;;;;;19.48;10.55;;;;;;;7.41;100.00;101014.25;5115066;28;20031;-48
2022/12/28 10:36:51;;;;;;;15.27;9.18;;;;;;;7.43;100.00;101009.19;5115096;28;20485;-43
2022/12/28 10:39:23;;;;;;;15.70;9.60;;;;;;;7.45;100.00;101019.50;5115798;28;20023;-44
2022/12/28 10:41:48;;;;;;;14.15;8.13;;;;;;;7.45;100.00;101010.16;5114791;28;20016;-45
2022/12/28 10:44:25;;;;;;;13.02;8.20;;;;;;;7.46;100.00;101011.03;5115616;28;20030;-45
2022/12/28 10:47:00;;;;;;;14.10;8.43;;;;;;;7.44;100.00;101008.38;5114851;28;20035;-44
2022/12/28 10:49:30;;;;;;;13.23;8.13;;;;;;;7.44;100.00;101013.53;5115501;28;20020;-46
2022/12/28 10:52:17;;;;;;;19.33;8.90;;;;;;;7.48;100.00;101015.41;5115252;28;20470;-47
2022/12/28 10:54:42;;;;;;;15.90;8.90;;;;;;;7.46;100.00;100999.06;5114318;28;20019;-44
2022/12/28 10:57:26;;;;;;;15.45;9.77;;;;;;;7.48;100.00;101005.16;5115207;28;20087;-46
2022/12/28 10:59:51;;;;;;;17.13;9.88;;;;;;;7.46;100.00;100991.38;5115016;28;20031;-44
2022/12/28 11:02:27;;;;;;;17.40;9.27;;;;;;;7.48;100.00;100994.88;5114409;28;20032;-43
2022/12/28 11:05:02;;;;;;;17.90;9.60;;;;;;;7.48;100.00;101000.03;5114917;28;20048;-44
2022/12/28 11:07:31;;;;;;;25.15;11.45;;;;;;;7.48;100.00;100976.06;5114906;28;20039;-43
2022/12/28 11:10:36;;;;;;;15.30;9.85;;;;;;;7.53;100.00;100995.09;5114384;28;20027;-43
2022/12/28 11:13:15;;;;;;;18.20;9.70;;;;;;;7.51;100.00;100989.88;5032275;28;20037;-44
2022/12/28 11:15:43;;;;;;;19.52;9.23;;;;;;;7.51;100.00;100983.88;5031220;28;20126;-43
2022/12/28 11:18:15;;;;;;;18.60;9.55;;;;;;;7.52;100.00;100973.69;5079449;28;20524;-44
2022/12/28 11:20:44;;;;;;;19.63;10.50;;;;;;;7.52;100.00;100980.53;5114379;28;20073;-44
2022/12/28 11:23:23;;;;;;;24.38;13.45;;;;;;;7.53;100.00;100972.88;5114239;28;20058;-43
2022/12/28 11:25:49;;;;;;;17.88;9.93;;;;;;;7.53;100.00;100967.75;5114510;28;20039;-45
2022/12/28 11:28:21;;;;;;;21.80;11.57;;;;;;;7.54;100.00;100969.53;5114494;28;20430;-43
2022/12/28 11:30:47;;;;;;;20.67;10.88;;;;;;;7.54;100.00;100956.69;5113503;28;20020;-44
2022/12/28 11:33:43;;;;;;;19.65;9.43;;;;;;;7.58;100.00;100960.28;5114698;28;20059;-44
2022/12/28 11:36:21;;;;;;;17.85;10.77;;;;;;;7.60;100.00;100960.34;5113548;28;20432;-43
2022/12/28 11:38:48;;;;;;;17.17;9.18;;;;;;;7.60;100.00;100953.50;5114091;28;20050;-43
2022/12/28 11:41:22;;;;;;;20.15;9.73;;;;;;;7.62;100.00;100956.13;5114648;28;20023;-46
2022/12/28 11:43:52;;;;;;;22.35;8.80;;;;;;;7.63;100.00;100937.38;5113352;28;20038;-44
2022/12/28 11:46:20;;;;;;;18.75;10.05;;;;;;;7.63;100.00;100942.50;5114385;28;20051;-44